sensor_id;sensor_type;location;lat;lon;timestamp;P1;durP1;ratioP1;P2;durP2;ratioP2
69977;SDS011;57317;43.606;3.872;2024-01-30T00:02:15;39.65;;;20.90;;
69977;SDS011;57317;43.606;3.872;2024-01-30T00:04:40;42.10;;;20.73;;
69977;SDS011;57317;43.606;3.872;2024-01-30T00:07:06;38.90;;;20.75;;
69977;SDS011;57317;43.606;3.872;2024-01-30T00:09:31;42.28;;;20.33;;
69977;SDS011;57317;43.606;3.872;2024-01-30T00:11:56;42.75;;;20.85;;
69977;SDS011;57317;43.606;3.872;2024-01-30T00:14:22;42.53;;;20.80;;
69977;SDS011;57317;43.606;3.872;2024-01-30T00:16:48;39.97;;;20.92;;
69977;SDS011;57317;43.606;3.872;2024-01-30T00:19:13;43.60;;;20.80;;
69977;SDS011;57317;43.606;3.872;2024-01-30T00:21:39;41.38;;;21.52;;
69977;SDS011;57317;43.606;3.872;2024-01-30T00:24:04;40.90;;;21.33;;
69977;SDS011;57317;43.606;3.872;2024-01-30T00:26:30;41.85;;;20.95;;
69977;SDS011;57317;43.606;3.872;2024-01-30T00:28:55;41.60;;;21.25;;
69977;SDS011;57317;43.606;3.872;2024-01-30T00:31:21;44.22;;;22.55;;
69977;SDS011;57317;43.606;3.872;2024-01-30T00:33:46;39.88;;;21.48;;
69977;SDS011;57317;43.606;3.872;2024-01-30T00:36:11;38.30;;;20.73;;
69977;SDS011;57317;43.606;3.872;2024-01-30T00:38:37;42.90;;;21.25;;
69977;SDS011;57317;43.606;3.872;2024-01-30T00:41:03;42.08;;;21.42;;
69977;SDS011;57317;43.606;3.872;2024-01-30T00:43:28;41.50;;;20.83;;
69977;SDS011;57317;43.606;3.872;2024-01-30T00:45:54;39.55;;;20.73;;
69977;SDS011;57317;43.606;3.872;2024-01-30T00:48:20;41.08;;;20.77;;
69977;SDS011;57317;43.606;3.872;2024-01-30T00:50:46;37.50;;;19.67;;
69977;SDS011;57317;43.606;3.872;2024-01-30T00:53:11;40.70;;;20.27;;
69977;SDS011;57317;43.606;3.872;2024-01-30T00:55:37;37.70;;;20.65;;
69977;SDS011;57317;43.606;3.872;2024-01-30T00:58:02;37.10;;;19.92;;
69977;SDS011;57317;43.606;3.872;2024-01-30T01:00:28;38.53;;;20.30;;
69977;SDS011;57317;43.606;3.872;2024-01-30T01:03:00;37.58;;;19.77;;
69977;SDS011;57317;43.606;3.872;2024-01-30T01:05:26;40.58;;;20.30;;
69977;SDS011;57317;43.606;3.872;2024-01-30T01:07:52;42.03;;;20.85;;
69977;SDS011;57317;43.606;3.872;2024-01-30T01:10:17;39.08;;;20.65;;
69977;SDS011;57317;43.606;3.872;2024-01-30T01:12:43;38.50;;;20.50;;
69977;SDS011;57317;43.606;3.872;2024-01-30T01:15:09;41.20;;;20.10;;
69977;SDS011;57317;43.606;3.872;2024-01-30T01:17:35;40.25;;;20.13;;
69977;SDS011;57317;43.606;3.872;2024-01-30T01:20:01;39.78;;;19.38;;
69977;SDS011;57317;43.606;3.872;2024-01-30T01:22:27;35.92;;;19.35;;
69977;SDS011;57317;43.606;3.872;2024-01-30T01:24:52;38.05;;;20.10;;
69977;SDS011;57317;43.606;3.872;2024-01-30T01:27:18;38.20;;;19.42;;
69977;SDS011;57317;43.606;3.872;2024-01-30T01:29:43;38.97;;;20.02;;
69977;SDS011;57317;43.606;3.872;2024-01-30T01:32:09;34.95;;;19.52;;
69977;SDS011;57317;43.606;3.872;2024-01-30T01:34:34;36.80;;;19.17;;
69977;SDS011;57317;43.606;3.872;2024-01-30T01:36:59;40.45;;;20.02;;
69977;SDS011;57317;43.606;3.872;2024-01-30T01:39:25;38.15;;;19.92;;
69977;SDS011;57317;43.606;3.872;2024-01-30T01:41:51;40.72;;;20.55;;
69977;SDS011;57317;43.606;3.872;2024-01-30T01:44:17;38.67;;;20.70;;
69977;SDS011;57317;43.606;3.872;2024-01-30T01:46:43;42.25;;;19.98;;
69977;SDS011;57317;43.606;3.872;2024-01-30T01:49:09;40.05;;;20.75;;
69977;SDS011;57317;43.606;3.872;2024-01-30T01:51:35;37.97;;;20.23;;
69977;SDS011;57317;43.606;3.872;2024-01-30T01:54:02;41.15;;;21.30;;
69977;SDS011;57317;43.606;3.872;2024-01-30T01:56:28;37.63;;;18.95;;
69977;SDS011;57317;43.606;3.872;2024-01-30T01:58:54;37.70;;;19.05;;
69977;SDS011;57317;43.606;3.872;2024-01-30T02:01:20;39.72;;;19.00;;
69977;SDS011;57317;43.606;3.872;2024-01-30T02:03:46;35.40;;;19.85;;
69977;SDS011;57317;43.606;3.872;2024-01-30T02:06:12;37.17;;;19.88;;
69977;SDS011;57317;43.606;3.872;2024-01-30T02:11:03;39.13;;;18.73;;
69977;SDS011;57317;43.606;3.872;2024-01-30T02:13:29;35.78;;;18.33;;
69977;SDS011;57317;43.606;3.872;2024-01-30T02:15:55;37.67;;;19.27;;
69977;SDS011;57317;43.606;3.872;2024-01-30T02:18:20;38.05;;;18.92;;
69977;SDS011;57317;43.606;3.872;2024-01-30T02:20:48;35.45;;;18.73;;
69977;SDS011;57317;43.606;3.872;2024-01-30T02:23:17;37.00;;;18.50;;
69977;SDS011;57317;43.606;3.872;2024-01-30T02:25:44;38.08;;;20.08;;
69977;SDS011;57317;43.606;3.872;2024-01-30T02:28:13;35.38;;;19.88;;
69977;SDS011;57317;43.606;3.872;2024-01-30T02:30:39;38.35;;;19.30;;
69977;SDS011;57317;43.606;3.872;2024-01-30T02:33:05;34.45;;;18.63;;
69977;SDS011;57317;43.606;3.872;2024-01-30T02:35:30;35.70;;;18.73;;
69977;SDS011;57317;43.606;3.872;2024-01-30T02:37:56;36.53;;;18.30;;
69977;SDS011;57317;43.606;3.872;2024-01-30T02:40:22;37.15;;;18.55;;
69977;SDS011;57317;43.606;3.872;2024-01-30T02:42:47;36.53;;;18.77;;
69977;SDS011;57317;43.606;3.872;2024-01-30T02:45:12;35.80;;;18.80;;
69977;SDS011;57317;43.606;3.872;2024-01-30T02:47:38;36.50;;;18.38;;
69977;SDS011;57317;43.606;3.872;2024-01-30T02:50:04;37.40;;;18.98;;
69977;SDS011;57317;43.606;3.872;2024-01-30T02:52:30;40.05;;;18.08;;
69977;SDS011;57317;43.606;3.872;2024-01-30T02:54:56;32.05;;;17.10;;
69977;SDS011;57317;43.606;3.872;2024-01-30T02:57:21;33.90;;;18.33;;
69977;SDS011;57317;43.606;3.872;2024-01-30T02:59:46;36.58;;;18.35;;
69977;SDS011;57317;43.606;3.872;2024-01-30T03:02:12;31.83;;;17.05;;
69977;SDS011;57317;43.606;3.872;2024-01-30T03:04:37;36.22;;;17.52;;
69977;SDS011;57317;43.606;3.872;2024-01-30T03:07:06;33.75;;;17.65;;
69977;SDS011;57317;43.606;3.872;2024-01-30T03:09:31;31.65;;;15.73;;
69977;SDS011;57317;43.606;3.872;2024-01-30T03:11:56;30.95;;;16.15;;
69977;SDS011;57317;43.606;3.872;2024-01-30T03:14:22;31.42;;;16.30;;
69977;SDS011;57317;43.606;3.872;2024-01-30T03:16:47;31.15;;;16.83;;
69977;SDS011;57317;43.606;3.872;2024-01-30T03:19:13;33.40;;;16.42;;
69977;SDS011;57317;43.606;3.872;2024-01-30T03:21:38;35.05;;;16.08;;
69977;SDS011;57317;43.606;3.872;2024-01-30T03:24:04;34.13;;;16.40;;
69977;SDS011;57317;43.606;3.872;2024-01-30T03:26:29;36.28;;;16.35;;
69977;SDS011;57317;43.606;3.872;2024-01-30T03:28:55;34.08;;;17.38;;
69977;SDS011;57317;43.606;3.872;2024-01-30T03:31:20;29.08;;;15.52;;
69977;SDS011;57317;43.606;3.872;2024-01-30T03:33:46;35.20;;;16.80;;
69977;SDS011;57317;43.606;3.872;2024-01-30T03:36:11;33.08;;;16.02;;
69977;SDS011;57317;43.606;3.872;2024-01-30T03:38:36;36.40;;;16.35;;
69977;SDS011;57317;43.606;3.872;2024-01-30T03:41:02;30.42;;;15.35;;
69977;SDS011;57317;43.606;3.872;2024-01-30T03:43:27;31.92;;;15.68;;
69977;SDS011;57317;43.606;3.872;2024-01-30T03:45:53;31.60;;;16.33;;
69977;SDS011;57317;43.606;3.872;2024-01-30T03:48:19;34.65;;;16.25;;
69977;SDS011;57317;43.606;3.872;2024-01-30T03:50:46;28.83;;;15.35;;
69977;SDS011;57317;43.606;3.872;2024-01-30T03:53:11;30.67;;;14.93;;
69977;SDS011;57317;43.606;3.872;2024-01-30T03:55:36;30.02;;;15.65;;
69977;SDS011;57317;43.606;3.872;2024-01-30T03:58:02;32.47;;;15.52;;
69977;SDS011;57317;43.606;3.872;2024-01-30T04:00:27;31.30;;;15.68;;
69977;SDS011;57317;43.606;3.872;2024-01-30T04:02:53;31.70;;;15.23;;
69977;SDS011;57317;43.606;3.872;2024-01-30T04:05:18;33.15;;;14.88;;
69977;SDS011;57317;43.606;3.872;2024-01-30T04:07:44;31.35;;;15.18;;
69977;SDS011;57317;43.606;3.872;2024-01-30T04:10:09;30.63;;;15.57;;
69977;SDS011;57317;43.606;3.872;2024-01-30T04:12:35;29.95;;;14.35;;
69977;SDS011;57317;43.606;3.872;2024-01-30T04:15:01;30.58;;;13.98;;
69977;SDS011;57317;43.606;3.872;2024-01-30T04:17:27;30.65;;;13.77;;
69977;SDS011;57317;43.606;3.872;2024-01-30T04:22:19;27.33;;;13.43;;
69977;SDS011;57317;43.606;3.872;2024-01-30T04:24:44;26.65;;;13.20;;
69977;SDS011;57317;43.606;3.872;2024-01-30T04:27:10;28.08;;;13.38;;
69977;SDS011;57317;43.606;3.872;2024-01-30T04:29:35;25.33;;;13.27;;
69977;SDS011;57317;43.606;3.872;2024-01-30T04:32:01;29.75;;;12.57;;
69977;SDS011;57317;43.606;3.872;2024-01-30T04:34:26;27.67;;;13.30;;
69977;SDS011;57317;43.606;3.872;2024-01-30T04:36:51;26.75;;;13.60;;
69977;SDS011;57317;43.606;3.872;2024-01-30T04:39:17;28.27;;;13.38;;
69977;SDS011;57317;43.606;3.872;2024-01-30T04:41:42;29.00;;;13.00;;
69977;SDS011;57317;43.606;3.872;2024-01-30T04:44:08;28.80;;;13.15;;
69977;SDS011;57317;43.606;3.872;2024-01-30T04:46:33;24.73;;;12.63;;
69977;SDS011;57317;43.606;3.872;2024-01-30T04:49:01;26.73;;;12.30;;
69977;SDS011;57317;43.606;3.872;2024-01-30T04:51:26;28.42;;;12.65;;
69977;SDS011;57317;43.606;3.872;2024-01-30T04:53:52;27.60;;;12.70;;
69977;SDS011;57317;43.606;3.872;2024-01-30T04:56:17;31.67;;;12.63;;
69977;SDS011;57317;43.606;3.872;2024-01-30T04:58:43;27.35;;;12.57;;
69977;SDS011;57317;43.606;3.872;2024-01-30T05:01:08;27.40;;;11.93;;
69977;SDS011;57317;43.606;3.872;2024-01-30T05:03:34;25.00;;;12.05;;
69977;SDS011;57317;43.606;3.872;2024-01-30T05:06:00;26.48;;;12.07;;
69977;SDS011;57317;43.606;3.872;2024-01-30T05:08:25;24.75;;;11.65;;
69977;SDS011;57317;43.606;3.872;2024-01-30T05:10:51;25.45;;;12.07;;
69977;SDS011;57317;43.606;3.872;2024-01-30T05:13:16;27.38;;;11.90;;
69977;SDS011;57317;43.606;3.872;2024-01-30T05:15:41;25.48;;;11.50;;
69977;SDS011;57317;43.606;3.872;2024-01-30T05:18:07;24.08;;;11.48;;
69977;SDS011;57317;43.606;3.872;2024-01-30T05:20:32;23.50;;;11.55;;
69977;SDS011;57317;43.606;3.872;2024-01-30T05:22:58;24.00;;;11.43;;
69977;SDS011;57317;43.606;3.872;2024-01-30T05:25:23;24.33;;;11.48;;
69977;SDS011;57317;43.606;3.872;2024-01-30T05:27:49;24.73;;;11.50;;
69977;SDS011;57317;43.606;3.872;2024-01-30T05:30:14;26.02;;;11.65;;
69977;SDS011;57317;43.606;3.872;2024-01-30T05:32:40;26.83;;;11.65;;
69977;SDS011;57317;43.606;3.872;2024-01-30T05:35:06;25.25;;;11.82;;
69977;SDS011;57317;43.606;3.872;2024-01-30T05:37:33;23.65;;;11.23;;
69977;SDS011;57317;43.606;3.872;2024-01-30T05:39:58;23.45;;;11.20;;
69977;SDS011;57317;43.606;3.872;2024-01-30T05:42:24;23.05;;;11.68;;
69977;SDS011;57317;43.606;3.872;2024-01-30T05:44:49;21.83;;;10.93;;
69977;SDS011;57317;43.606;3.872;2024-01-30T05:47:15;24.05;;;11.10;;
69977;SDS011;57317;43.606;3.872;2024-01-30T05:49:41;25.50;;;11.70;;
69977;SDS011;57317;43.606;3.872;2024-01-30T05:52:07;23.10;;;11.23;;
69977;SDS011;57317;43.606;3.872;2024-01-30T05:54:32;26.00;;;11.43;;
69977;SDS011;57317;43.606;3.872;2024-01-30T05:56:57;27.45;;;12.20;;
69977;SDS011;57317;43.606;3.872;2024-01-30T05:59:23;28.45;;;12.07;;
69977;SDS011;57317;43.606;3.872;2024-01-30T06:01:50;58.10;;;32.05;;
69977;SDS011;57317;43.606;3.872;2024-01-30T06:04:15;89.35;;;38.88;;
69977;SDS011;57317;43.606;3.872;2024-01-30T06:06:41;35.65;;;15.30;;
69977;SDS011;57317;43.606;3.872;2024-01-30T06:09:06;26.65;;;12.57;;
69977;SDS011;57317;43.606;3.872;2024-01-30T06:11:34;26.17;;;12.40;;
69977;SDS011;57317;43.606;3.872;2024-01-30T06:13:59;26.20;;;12.88;;
69977;SDS011;57317;43.606;3.872;2024-01-30T06:16:25;27.88;;;11.88;;
69977;SDS011;57317;43.606;3.872;2024-01-30T06:18:54;25.10;;;11.98;;
69977;SDS011;57317;43.606;3.872;2024-01-30T06:21:20;24.85;;;11.32;;
69977;SDS011;57317;43.606;3.872;2024-01-30T06:23:45;23.70;;;11.13;;
69977;SDS011;57317;43.606;3.872;2024-01-30T06:26:11;25.95;;;11.85;;
69977;SDS011;57317;43.606;3.872;2024-01-30T06:28:36;24.88;;;11.75;;
69977;SDS011;57317;43.606;3.872;2024-01-30T06:31:02;25.80;;;11.45;;
69977;SDS011;57317;43.606;3.872;2024-01-30T06:33:27;27.02;;;11.77;;
69977;SDS011;57317;43.606;3.872;2024-01-30T06:35:52;26.80;;;11.77;;
69977;SDS011;57317;43.606;3.872;2024-01-30T06:38:18;24.77;;;11.60;;
69977;SDS011;57317;43.606;3.872;2024-01-30T06:40:43;26.55;;;11.52;;
69977;SDS011;57317;43.606;3.872;2024-01-30T06:43:09;27.75;;;11.77;;
69977;SDS011;57317;43.606;3.872;2024-01-30T06:45:35;25.75;;;12.35;;
69977;SDS011;57317;43.606;3.872;2024-01-30T06:48:00;54.85;;;26.15;;
69977;SDS011;57317;43.606;3.872;2024-01-30T06:50:26;57.22;;;24.77;;
69977;SDS011;57317;43.606;3.872;2024-01-30T06:52:51;27.50;;;11.45;;
69977;SDS011;57317;43.606;3.872;2024-01-30T06:55:17;24.35;;;12.02;;
69977;SDS011;57317;43.606;3.872;2024-01-30T06:57:43;26.02;;;12.00;;
69977;SDS011;57317;43.606;3.872;2024-01-30T07:00:09;27.25;;;12.10;;
69977;SDS011;57317;43.606;3.872;2024-01-30T07:02:35;27.73;;;11.70;;
69977;SDS011;57317;43.606;3.872;2024-01-30T07:05:00;26.40;;;11.60;;
69977;SDS011;57317;43.606;3.872;2024-01-30T07:07:26;26.52;;;12.68;;
69977;SDS011;57317;43.606;3.872;2024-01-30T07:09:52;29.25;;;11.60;;
69977;SDS011;57317;43.606;3.872;2024-01-30T07:12:21;25.10;;;11.73;;
69977;SDS011;57317;43.606;3.872;2024-01-30T07:14:47;29.95;;;11.88;;
69977;SDS011;57317;43.606;3.872;2024-01-30T07:17:13;25.65;;;10.90;;
69977;SDS011;57317;43.606;3.872;2024-01-30T07:19:39;22.52;;;10.73;;
69977;SDS011;57317;43.606;3.872;2024-01-30T07:22:04;24.92;;;10.35;;
69977;SDS011;57317;43.606;3.872;2024-01-30T07:24:30;22.27;;;9.90;;
69977;SDS011;57317;43.606;3.872;2024-01-30T07:26:55;23.92;;;10.75;;
69977;SDS011;57317;43.606;3.872;2024-01-30T07:29:20;26.38;;;10.95;;
69977;SDS011;57317;43.606;3.872;2024-01-30T07:31:47;24.52;;;10.13;;
69977;SDS011;57317;43.606;3.872;2024-01-30T07:34:12;22.20;;;9.52;;
69977;SDS011;57317;43.606;3.872;2024-01-30T07:36:38;21.40;;;9.55;;
69977;SDS011;57317;43.606;3.872;2024-01-30T07:39:03;23.20;;;10.13;;
69977;SDS011;57317;43.606;3.872;2024-01-30T07:41:29;28.10;;;10.15;;
69977;SDS011;57317;43.606;3.872;2024-01-30T07:43:54;26.58;;;10.57;;
69977;SDS011;57317;43.606;3.872;2024-01-30T07:46:19;24.98;;;10.88;;
69977;SDS011;57317;43.606;3.872;2024-01-30T07:48:45;29.77;;;11.95;;
69977;SDS011;57317;43.606;3.872;2024-01-30T07:51:10;24.83;;;11.95;;
69977;SDS011;57317;43.606;3.872;2024-01-30T07:53:36;25.13;;;11.00;;
69977;SDS011;57317;43.606;3.872;2024-01-30T07:56:01;31.73;;;12.43;;
69977;SDS011;57317;43.606;3.872;2024-01-30T07:58:27;28.63;;;11.85;;
69977;SDS011;57317;43.606;3.872;2024-01-30T08:00:53;24.80;;;11.57;;
69977;SDS011;57317;43.606;3.872;2024-01-30T08:03:18;26.65;;;11.77;;
69977;SDS011;57317;43.606;3.872;2024-01-30T08:05:44;36.25;;;15.43;;
69977;SDS011;57317;43.606;3.872;2024-01-30T08:08:09;55.90;;;24.50;;
69977;SDS011;57317;43.606;3.872;2024-01-30T08:10:35;45.95;;;21.70;;
69977;SDS011;57317;43.606;3.872;2024-01-30T08:13:01;26.27;;;11.30;;
69977;SDS011;57317;43.606;3.872;2024-01-30T08:15:26;25.27;;;10.93;;
69977;SDS011;57317;43.606;3.872;2024-01-30T08:17:52;24.98;;;10.50;;
69977;SDS011;57317;43.606;3.872;2024-01-30T08:20:23;24.50;;;10.18;;
69977;SDS011;57317;43.606;3.872;2024-01-30T08:22:51;21.83;;;9.82;;
69977;SDS011;57317;43.606;3.872;2024-01-30T08:25:17;22.15;;;9.23;;
69977;SDS011;57317;43.606;3.872;2024-01-30T08:27:42;21.90;;;9.82;;
69977;SDS011;57317;43.606;3.872;2024-01-30T08:30:08;21.95;;;9.43;;
69977;SDS011;57317;43.606;3.872;2024-01-30T08:32:34;21.38;;;9.43;;
69977;SDS011;57317;43.606;3.872;2024-01-30T08:35:00;24.25;;;10.05;;
69977;SDS011;57317;43.606;3.872;2024-01-30T08:37:28;22.10;;;9.45;;
69977;SDS011;57317;43.606;3.872;2024-01-30T08:39:54;23.02;;;10.05;;
69977;SDS011;57317;43.606;3.872;2024-01-30T08:42:20;22.88;;;8.90;;
69977;SDS011;57317;43.606;3.872;2024-01-30T08:44:47;19.60;;;8.82;;
69977;SDS011;57317;43.606;3.872;2024-01-30T08:47:14;23.58;;;9.68;;
69977;SDS011;57317;43.606;3.872;2024-01-30T08:49:41;22.52;;;9.57;;
69977;SDS011;57317;43.606;3.872;2024-01-30T08:52:09;37.20;;;16.48;;
69977;SDS011;57317;43.606;3.872;2024-01-30T08:54:34;25.42;;;10.40;;
69977;SDS011;57317;43.606;3.872;2024-01-30T08:57:00;21.90;;;9.30;;
69977;SDS011;57317;43.606;3.872;2024-01-30T08:59:26;19.80;;;8.93;;
69977;SDS011;57317;43.606;3.872;2024-01-30T09:01:51;23.25;;;9.82;;
69977;SDS011;57317;43.606;3.872;2024-01-30T09:04:20;24.40;;;9.68;;
69977;SDS011;57317;43.606;3.872;2024-01-30T09:06:46;22.95;;;9.82;;
69977;SDS011;57317;43.606;3.872;2024-01-30T09:09:11;24.42;;;10.10;;
69977;SDS011;57317;43.606;3.872;2024-01-30T09:11:37;22.92;;;9.73;;
69977;SDS011;57317;43.606;3.872;2024-01-30T09:14:02;25.33;;;9.90;;
69977;SDS011;57317;43.606;3.872;2024-01-30T09:16:28;22.17;;;9.82;;
69977;SDS011;57317;43.606;3.872;2024-01-30T09:18:53;23.38;;;10.20;;
69977;SDS011;57317;43.606;3.872;2024-01-30T09:21:19;23.75;;;10.05;;
69977;SDS011;57317;43.606;3.872;2024-01-30T09:23:44;20.95;;;9.65;;
69977;SDS011;57317;43.606;3.872;2024-01-30T09:26:09;20.63;;;9.93;;
69977;SDS011;57317;43.606;3.872;2024-01-30T09:28:35;22.25;;;10.10;;
69977;SDS011;57317;43.606;3.872;2024-01-30T09:31:01;24.52;;;9.55;;
69977;SDS011;57317;43.606;3.872;2024-01-30T09:33:26;22.27;;;9.77;;
69977;SDS011;57317;43.606;3.872;2024-01-30T09:35:51;21.88;;;10.05;;
69977;SDS011;57317;43.606;3.872;2024-01-30T09:38:17;22.50;;;9.60;;
69977;SDS011;57317;43.606;3.872;2024-01-30T09:40:42;22.00;;;9.98;;
69977;SDS011;57317;43.606;3.872;2024-01-30T09:43:08;22.50;;;9.70;;
69977;SDS011;57317;43.606;3.872;2024-01-30T09:45:36;21.83;;;9.52;;
69977;SDS011;57317;43.606;3.872;2024-01-30T09:48:01;24.38;;;10.32;;
69977;SDS011;57317;43.606;3.872;2024-01-30T09:50:27;21.80;;;10.15;;
69977;SDS011;57317;43.606;3.872;2024-01-30T09:52:52;22.92;;;9.98;;
69977;SDS011;57317;43.606;3.872;2024-01-30T09:55:20;22.70;;;9.80;;
69977;SDS011;57317;43.606;3.872;2024-01-30T09:57:45;20.17;;;9.90;;
69977;SDS011;57317;43.606;3.872;2024-01-30T10:00:11;21.05;;;10.27;;
69977;SDS011;57317;43.606;3.872;2024-01-30T10:02:38;21.80;;;9.90;;
69977;SDS011;57317;43.606;3.872;2024-01-30T10:05:03;26.48;;;11.00;;
69977;SDS011;57317;43.606;3.872;2024-01-30T10:07:30;22.88;;;9.93;;
69977;SDS011;57317;43.606;3.872;2024-01-30T10:09:55;23.48;;;10.98;;
69977;SDS011;57317;43.606;3.872;2024-01-30T10:12:26;20.75;;;9.98;;
69977;SDS011;57317;43.606;3.872;2024-01-30T10:14:52;23.05;;;10.30;;
69977;SDS011;57317;43.606;3.872;2024-01-30T10:17:18;21.45;;;10.50;;
69977;SDS011;57317;43.606;3.872;2024-01-30T10:19:46;23.83;;;10.27;;
69977;SDS011;57317;43.606;3.872;2024-01-30T10:22:12;22.08;;;10.95;;
69977;SDS011;57317;43.606;3.872;2024-01-30T10:24:37;20.83;;;9.90;;
69977;SDS011;57317;43.606;3.872;2024-01-30T10:27:03;19.48;;;9.35;;
69977;SDS011;57317;43.606;3.872;2024-01-30T10:29:31;24.48;;;10.57;;
69977;SDS011;57317;43.606;3.872;2024-01-30T10:32:03;24.00;;;11.48;;
69977;SDS011;57317;43.606;3.872;2024-01-30T10:34:30;23.63;;;10.40;;
69977;SDS011;57317;43.606;3.872;2024-01-30T10:37:16;21.23;;;10.25;;
69977;SDS011;57317;43.606;3.872;2024-01-30T10:39:42;21.13;;;10.50;;
69977;SDS011;57317;43.606;3.872;2024-01-30T10:42:12;20.90;;;10.55;;
69977;SDS011;57317;43.606;3.872;2024-01-30T10:47:43;21.27;;;11.10;;
69977;SDS011;57317;43.606;3.872;2024-01-30T10:50:11;24.05;;;12.02;;
69977;SDS011;57317;43.606;3.872;2024-01-30T10:52:36;22.67;;;10.48;;
69977;SDS011;57317;43.606;3.872;2024-01-30T10:55:02;21.67;;;11.10;;
69977;SDS011;57317;43.606;3.872;2024-01-30T10:57:31;22.83;;;10.48;;
69977;SDS011;57317;43.606;3.872;2024-01-30T11:00:00;22.10;;;10.65;;
69977;SDS011;57317;43.606;3.872;2024-01-30T11:02:30;21.27;;;9.93;;
69977;SDS011;57317;43.606;3.872;2024-01-30T11:07:26;23.17;;;10.23;;
69977;SDS011;57317;43.606;3.872;2024-01-30T11:09:53;22.92;;;10.52;;
69977;SDS011;57317;43.606;3.872;2024-01-30T11:12:28;22.48;;;11.13;;
69977;SDS011;57317;43.606;3.872;2024-01-30T11:15:07;22.55;;;11.52;;
69977;SDS011;57317;43.606;3.872;2024-01-30T11:17:41;26.67;;;11.10;;
69977;SDS011;57317;43.606;3.872;2024-01-30T11:22:47;21.55;;;10.55;;
69977;SDS011;57317;43.606;3.872;2024-01-30T11:25:16;20.73;;;9.60;;
69977;SDS011;57317;43.606;3.872;2024-01-30T11:27:42;21.42;;;10.07;;
69977;SDS011;57317;43.606;3.872;2024-01-30T11:32:34;21.00;;;8.93;;
69977;SDS011;57317;43.606;3.872;2024-01-30T11:34:59;21.75;;;8.52;;
69977;SDS011;57317;43.606;3.872;2024-01-30T11:37:25;20.92;;;9.90;;
69977;SDS011;57317;43.606;3.872;2024-01-30T11:39:52;21.52;;;9.95;;
69977;SDS011;57317;43.606;3.872;2024-01-30T11:42:18;22.60;;;9.95;;
69977;SDS011;57317;43.606;3.872;2024-01-30T11:47:13;21.45;;;8.43;;
69977;SDS011;57317;43.606;3.872;2024-01-30T11:49:39;21.40;;;9.38;;
69977;SDS011;57317;43.606;3.872;2024-01-30T11:52:05;18.50;;;8.02;;
69977;SDS011;57317;43.606;3.872;2024-01-30T11:54:30;17.70;;;7.32;;
69977;SDS011;57317;43.606;3.872;2024-01-30T11:56:55;17.92;;;6.50;;
69977;SDS011;57317;43.606;3.872;2024-01-30T11:59:21;16.63;;;5.47;;
69977;SDS011;57317;43.606;3.872;2024-01-30T12:01:46;16.25;;;6.85;;
69977;SDS011;57317;43.606;3.872;2024-01-30T12:04:12;16.85;;;6.78;;
69977;SDS011;57317;43.606;3.872;2024-01-30T12:06:38;17.70;;;5.82;;
69977;SDS011;57317;43.606;3.872;2024-01-30T12:09:03;16.08;;;5.82;;
69977;SDS011;57317;43.606;3.872;2024-01-30T12:11:29;15.60;;;5.72;;
69977;SDS011;57317;43.606;3.872;2024-01-30T12:13:55;15.88;;;5.63;;
69977;SDS011;57317;43.606;3.872;2024-01-30T12:16:21;24.30;;;10.93;;
69977;SDS011;57317;43.606;3.872;2024-01-30T12:18:46;25.05;;;11.63;;
69977;SDS011;57317;43.606;3.872;2024-01-30T12:21:12;15.65;;;6.30;;
69977;SDS011;57317;43.606;3.872;2024-01-30T12:23:37;16.88;;;6.38;;
69977;SDS011;57317;43.606;3.872;2024-01-30T12:26:03;16.42;;;6.30;;
69977;SDS011;57317;43.606;3.872;2024-01-30T12:28:32;16.77;;;5.82;;
69977;SDS011;57317;43.606;3.872;2024-01-30T12:31:01;16.58;;;5.55;;
69977;SDS011;57317;43.606;3.872;2024-01-30T12:33:28;15.68;;;5.30;;
69977;SDS011;57317;43.606;3.872;2024-01-30T12:35:54;17.45;;;6.15;;
69977;SDS011;57317;43.606;3.872;2024-01-30T12:38:19;15.45;;;5.15;;
69977;SDS011;57317;43.606;3.872;2024-01-30T12:40:45;16.40;;;4.57;;
69977;SDS011;57317;43.606;3.872;2024-01-30T12:43:11;16.17;;;5.07;;
69977;SDS011;57317;43.606;3.872;2024-01-30T12:45:38;18.25;;;5.75;;
69977;SDS011;57317;43.606;3.872;2024-01-30T12:48:04;16.08;;;5.53;;
69977;SDS011;57317;43.606;3.872;2024-01-30T12:50:30;14.77;;;5.18;;
69977;SDS011;57317;43.606;3.872;2024-01-30T12:52:55;16.80;;;5.45;;
69977;SDS011;57317;43.606;3.872;2024-01-30T12:55:21;14.35;;;5.22;;
69977;SDS011;57317;43.606;3.872;2024-01-30T12:57:46;70.13;;;36.38;;
69977;SDS011;57317;43.606;3.872;2024-01-30T13:00:12;19.42;;;7.00;;
69977;SDS011;57317;43.606;3.872;2024-01-30T13:02:37;13.65;;;4.47;;
69977;SDS011;57317;43.606;3.872;2024-01-30T13:05:03;16.05;;;4.90;;
69977;SDS011;57317;43.606;3.872;2024-01-30T13:07:29;15.20;;;5.05;;
69977;SDS011;57317;43.606;3.872;2024-01-30T13:09:54;15.95;;;5.05;;
69977;SDS011;57317;43.606;3.872;2024-01-30T13:14:46;19.70;;;5.30;;
69977;SDS011;57317;43.606;3.872;2024-01-30T13:17:11;15.60;;;5.15;;
69977;SDS011;57317;43.606;3.872;2024-01-30T13:19:37;15.88;;;4.93;;
69977;SDS011;57317;43.606;3.872;2024-01-30T13:22:02;16.60;;;5.18;;
69977;SDS011;57317;43.606;3.872;2024-01-30T13:24:28;15.00;;;4.57;;
69977;SDS011;57317;43.606;3.872;2024-01-30T13:26:54;16.60;;;5.15;;
69977;SDS011;57317;43.606;3.872;2024-01-30T13:29:19;18.25;;;4.80;;
69977;SDS011;57317;43.606;3.872;2024-01-30T13:31:45;18.02;;;4.93;;
69977;SDS011;57317;43.606;3.872;2024-01-30T13:34:11;16.63;;;5.07;;
69977;SDS011;57317;43.606;3.872;2024-01-30T13:36:38;16.02;;;4.90;;
69977;SDS011;57317;43.606;3.872;2024-01-30T13:39:04;16.33;;;5.28;;
69977;SDS011;57317;43.606;3.872;2024-01-30T13:41:33;16.15;;;4.72;;
69977;SDS011;57317;43.606;3.872;2024-01-30T13:43:58;16.70;;;4.85;;
69977;SDS011;57317;43.606;3.872;2024-01-30T13:46:24;15.48;;;5.40;;
69977;SDS011;57317;43.606;3.872;2024-01-30T13:48:50;14.57;;;4.72;;
69977;SDS011;57317;43.606;3.872;2024-01-30T13:51:15;51.20;;;24.58;;
69977;SDS011;57317;43.606;3.872;2024-01-30T13:53:42;20.17;;;6.88;;
69977;SDS011;57317;43.606;3.872;2024-01-30T13:56:07;17.27;;;4.90;;
69977;SDS011;57317;43.606;3.872;2024-01-30T13:58:33;15.27;;;4.78;;
69977;SDS011;57317;43.606;3.872;2024-01-30T14:01:01;15.00;;;4.80;;
69977;SDS011;57317;43.606;3.872;2024-01-30T14:03:26;13.68;;;4.47;;
69977;SDS011;57317;43.606;3.872;2024-01-30T14:05:52;14.80;;;4.82;;
69977;SDS011;57317;43.606;3.872;2024-01-30T14:08:17;16.30;;;4.68;;
69977;SDS011;57317;43.606;3.872;2024-01-30T14:10:42;16.33;;;4.55;;
69977;SDS011;57317;43.606;3.872;2024-01-30T14:13:08;15.32;;;4.47;;
69977;SDS011;57317;43.606;3.872;2024-01-30T14:15:34;15.45;;;5.00;;
69977;SDS011;57317;43.606;3.872;2024-01-30T14:17:59;15.95;;;4.68;;
69977;SDS011;57317;43.606;3.872;2024-01-30T14:22:51;18.17;;;4.53;;
69977;SDS011;57317;43.606;3.872;2024-01-30T14:25:18;13.35;;;4.28;;
69977;SDS011;57317;43.606;3.872;2024-01-30T14:27:44;13.23;;;4.35;;
69977;SDS011;57317;43.606;3.872;2024-01-30T14:30:10;13.63;;;4.72;;
69977;SDS011;57317;43.606;3.872;2024-01-30T14:32:36;14.93;;;4.97;;
69977;SDS011;57317;43.606;3.872;2024-01-30T14:35:03;15.63;;;4.75;;
69977;SDS011;57317;43.606;3.872;2024-01-30T14:37:29;15.05;;;4.50;;
69977;SDS011;57317;43.606;3.872;2024-01-30T14:39:55;15.23;;;4.78;;
69977;SDS011;57317;43.606;3.872;2024-01-30T14:42:20;15.13;;;4.47;;